Time;durP1;ratioP1;P1;durP2;ratioP2;P2;SDS_P1;SDS_P2;PMS_P1;PMS_P2;Temp;Humidity;BMP_temperature;BMP_pressure;BME280_temperature;BME280_humidity;BME280_pressure;Samples;Min_cycle;Max_cycle;Signal;HPM_P1;HPM_P2
2021/04/17 00:01:14;;;;;;;3.33;1.80;;;4.50;99.90;;;;;;4713979;30;20438;-77
2021/04/17 00:03:40;;;;;;;1.50;1.40;;;4.50;99.90;;;;;;4697630;30;20965;-78
2021/04/17 00:06:05;;;;;;;1.50;1.40;;;4.50;99.90;;;;;;4727099;30;20846;-77
2021/04/17 00:08:31;;;;;;;1.75;1.65;;;4.50;99.90;;;;;;4709139;30;20480;-78
2021/04/17 00:10:57;;;;;;;1.67;1.27;;;4.50;99.90;;;;;;4706671;30;20432;-78
2021/04/17 00:13:23;;;;;;;1.47;1.37;;;4.40;99.90;;;;;;4693528;30;20422;-78
2021/04/17 00:15:49;;;;;;;1.73;1.43;;;4.40;99.90;;;;;;4716236;30;21002;-78
2021/04/17 00:18:14;;;;;;;1.40;1.30;;;4.40;99.90;;;;;;4697439;30;20422;-78
2021/04/17 00:20:40;;;;;;;1.50;1.40;;;4.50;99.90;;;;;;4719576;30;20440;-78
2021/04/17 00:23:06;;;;;;;1.88;1.50;;;4.50;99.90;;;;;;4709039;30;20794;-78
2021/04/17 00:25:31;;;;;;;1.48;1.38;;;4.50;99.90;;;;;;4717649;30;20426;-78
2021/04/17 00:27:57;;;;;;;2.20;1.87;;;4.50;99.90;;;;;;4712696;30;20963;-78
2021/04/17 00:30:23;;;;;;;1.67;1.58;;;4.40;99.90;;;;;;4714809;30;20430;-78
2021/04/17 00:32:48;;;;;;;1.60;1.42;;;4.50;99.90;;;;;;4712751;30;20521;-77
2021/04/17 00:35:14;;;;;;;1.70;1.60;;;4.40;99.90;;;;;;4712389;30;20470;-77
2021/04/17 00:37:40;;;;;;;1.58;1.45;;;4.50;99.90;;;;;;4711746;30;20518;-77
2021/04/17 00:40:06;;;;;;;1.70;1.60;;;4.50;99.90;;;;;;4708630;30;20422;-77
2021/04/17 00:42:32;;;;;;;1.30;1.20;;;4.40;99.90;;;;;;4715603;30;20845;-77
2021/04/17 00:44:58;;;;;;;3.33;1.48;;;4.40;99.90;;;;;;4692892;30;20446;-77
2021/04/17 00:47:23;;;;;;;1.40;1.30;;;4.30;99.90;;;;;;4718220;30;20850;-77
2021/04/17 00:49:52;;;;;;;1.60;1.30;;;4.30;99.90;;;;;;4715735;30;20422;-78
2021/04/17 00:52:17;;;;;;;1.80;1.48;;;4.30;99.90;;;;;;4735536;30;20860;-79
2021/04/17 00:54:43;;;;;;;1.50;1.40;;;4.30;99.90;;;;;;4697513;30;20821;-79
2021/04/17 00:57:09;;;;;;;1.57;1.37;;;4.30;99.90;;;;;;4697471;30;20620;-79
2021/04/17 00:59:35;;;;;;;1.50;1.40;;;4.40;99.90;;;;;;4685646;30;21148;-80
2021/04/17 01:02:01;;;;;;;1.35;1.25;;;4.30;99.90;;;;;;4684562;30;20806;-79
2021/04/17 01:04:41;;;;;;;1.77;1.40;;;4.40;99.90;;;;;;4700396;30;20459;-79
2021/04/17 01:07:15;;;;;;;1.30;1.20;;;4.30;99.90;;;;;;4709668;30;20431;-80
2021/04/17 01:09:47;;;;;;;1.60;1.50;;;4.40;99.90;;;;;;4708539;30;20497;-79
2021/04/17 01:12:15;;;;;;;2.08;1.30;;;4.40;99.90;;;;;;4718627;30;20439;-80
2021/04/17 01:14:42;;;;;;;1.63;1.50;;;4.50;99.90;;;;;;4696061;30;20440;-79
2021/04/17 01:17:08;;;;;;;1.40;1.30;;;4.40;99.90;;;;;;4703230;30;20435;-80
2021/04/17 01:19:41;;;;;;;1.50;1.30;;;4.50;99.90;;;;;;4700076;30;20438;-80
2021/04/17 01:22:11;;;;;;;1.90;1.20;;;4.30;99.90;;;;;;4692835;30;20515;-80
2021/04/17 01:24:37;;;;;;;1.60;1.40;;;4.30;99.90;;;;;;4721470;30;20473;-80
2021/04/17 01:27:04;;;;;;;1.48;1.38;;;4.20;99.90;;;;;;4694689;30;20949;-79
2021/04/17 01:29:30;;;;;;;1.45;1.25;;;4.30;99.90;;;;;;4709043;30;20458;-80
2021/04/17 01:31:57;;;;;;;1.10;1.10;;;4.30;99.90;;;;;;4700496;30;20846;-80
2021/04/17 01:34:23;;;;;;;1.45;1.35;;;4.30;99.90;;;;;;4733825;30;20445;-80
2021/04/17 01:36:48;;;;;;;1.60;1.50;;;4.40;99.90;;;;;;4704241;30;20434;-80
2021/04/17 01:39:14;;;;;;;1.40;1.30;;;4.20;99.90;;;;;;4693198;30;20439;-81
2021/04/17 01:41:43;;;;;;;1.88;1.38;;;4.30;99.90;;;;;;4717129;30;20474;-81
2021/04/17 01:44:21;;;;;;;1.13;1.03;;;4.30;99.90;;;;;;4694268;30;20483;-80
2021/04/17 01:46:58;;;;;;;1.50;1.40;;;4.20;99.90;;;;;;4721787;30;20520;-78
2021/04/17 01:49:24;;;;;;;1.40;1.30;;;4.30;99.90;;;;;;4712083;30;20432;-78
2021/04/17 01:51:50;;;;;;;1.40;1.30;;;4.20;99.90;;;;;;4699408;30;21239;-78
2021/04/17 01:54:20;;;;;;;1.10;1.10;;;4.30;99.90;;;;;;4729372;30;20513;-78
2021/04/17 01:56:49;;;;;;;2.40;1.40;;;4.20;99.90;;;;;;4730897;30;20430;-78
2021/04/17 01:59:17;;;;;;;1.30;1.20;;;4.20;99.90;;;;;;4703054;30;20434;-78
2021/04/17 02:01:42;;;;;;;1.27;1.17;;;4.40;99.90;;;;;;4694920;30;20434;-77
2021/04/17 02:04:08;;;;;;;1.20;1.10;;;4.20;99.90;;;;;;4697826;30;20510;-77
2021/04/17 02:06:34;;;;;;;1.40;1.30;;;4.20;99.90;;;;;;4715758;30;20439;-77
2021/04/17 02:09:00;;;;;;;1.27;1.10;;;4.20;99.90;;;;;;4712843;30;20438;-77
2021/04/17 02:11:25;;;;;;;1.30;1.20;;;4.30;99.90;;;;;;4718668;30;20474;-77
2021/04/17 02:13:51;;;;;;;1.30;1.17;;;4.30;99.90;;;;;;4712655;30;20434;-77
2021/04/17 02:16:18;;;;;;;1.80;1.33;;;4.30;99.90;;;;;;4689926;30;20979;-78
2021/04/17 02:18:57;;;;;;;1.30;1.20;;;4.20;99.90;;;;;;4714051;30;20446;-78
2021/04/17 02:21:36;;;;;;;1.33;1.23;;;4.30;99.90;;;;;;4720496;30;20498;-77
2021/04/17 02:24:02;;;;;;;1.20;1.10;;;4.30;99.90;;;;;;4687118;30;20520;-77
2021/04/17 02:26:28;;;;;;;1.27;1.17;;;4.40;99.90;;;;;;4702966;30;21027;-77
2021/04/17 02:28:54;;;;;;;1.00;1.00;;;4.40;99.90;;;;;;4705017;30;20757;-78
2021/04/17 02:31:19;;;;;;;1.30;1.10;;;4.50;99.90;;;;;;4706249;30;20513;-78
2021/04/17 02:33:45;;;;;;;1.08;1.08;;;4.40;99.90;;;;;;4716587;30;21049;-77
2021/04/17 02:36:10;;;;;;;1.07;1.07;;;4.40;99.90;;;;;;4699312;30;20449;-78
2021/04/17 02:38:36;;;;;;;1.80;1.25;;;4.40;99.90;;;;;;4724452;30;20440;-78
2021/04/17 02:41:02;;;;;;;1.20;1.10;;;4.40;99.90;;;;;;4717805;30;20515;-78
2021/04/17 02:43:28;;;;;;;0.97;0.97;;;4.50;99.90;;;;;;4720491;30;20468;-78
2021/04/17 02:45:53;;;;;;;1.30;1.20;;;4.40;99.90;;;;;;4690724;30;20437;-78
2021/04/17 02:48:19;;;;;;;1.30;1.10;;;4.40;99.90;;;;;;4697508;30;20477;-78
2021/04/17 02:50:45;;;;;;;1.00;1.00;;;4.50;99.90;;;;;;4698334;30;20451;-77
2021/04/17 02:53:10;;;;;;;1.30;1.10;;;4.60;99.90;;;;;;4690827;30;20972;-78
2021/04/17 02:55:36;;;;;;;2.25;1.30;;;4.50;99.90;;;;;;4686171;30;20429;-78
2021/04/17 02:58:02;;;;;;;1.40;1.30;;;4.50;99.90;;;;;;4701849;30;20435;-77
2021/04/17 03:00:28;;;;;;;1.15;1.05;;;4.50;99.90;;;;;;4702984;30;20427;-78
2021/04/17 03:02:53;;;;;;;1.08;1.05;;;4.50;99.90;;;;;;4717598;30;20426;-77
2021/04/17 03:05:19;;;;;;;1.00;1.00;;;4.50;99.90;;;;;;4712286;30;20426;-77
2021/04/17 03:07:45;;;;;;;1.30;1.20;;;4.50;99.90;;;;;;4718347;30;20426;-78
2021/04/17 03:10:11;;;;;;;1.00;1.00;;;4.50;99.90;;;;;;4693551;30;20794;-78
2021/04/17 03:12:37;;;;;;;1.15;1.15;;;4.50;99.90;;;;;;4712364;30;20427;-78
2021/04/17 03:15:03;;;;;;;1.00;0.80;;;4.50;99.90;;;;;;4689513;30;20473;-77
2021/04/17 03:17:29;;;;;;;1.20;1.10;;;4.40;99.90;;;;;;4702513;30;20452;-78
2021/04/17 03:19:55;;;;;;;1.10;1.00;;;4.50;99.90;;;;;;4698194;30;20969;-78
2021/04/17 03:22:20;;;;;;;1.30;1.20;;;4.40;99.90;;;;;;4743196;30;20807;-81
2021/04/17 03:24:46;;;;;;;1.20;1.17;;;4.50;99.90;;;;;;4675092;30;20429;-81
2021/04/17 03:27:12;;;;;;;1.45;1.35;;;4.50;99.90;;;;;;4684277;30;20442;-80
2021/04/17 03:29:38;;;;;;;1.20;1.10;;;4.60;99.90;;;;;;4719990;30;20420;-81
2021/04/17 03:32:04;;;;;;;1.00;1.00;;;4.50;99.90;;;;;;4692302;30;20435;-79
2021/04/17 03:34:30;;;;;;;1.13;1.00;;;4.50;99.90;;;;;;4711748;30;20444;-80
2021/04/17 03:36:55;;;;;;;1.02;1.02;;;4.50;99.90;;;;;;4700854;30;20479;-81
2021/04/17 03:39:21;;;;;;;1.00;1.00;;;4.50;99.90;;;;;;4705560;30;20469;-80
2021/04/17 03:41:47;;;;;;;0.90;0.90;;;4.50;99.90;;;;;;4715934;30;21007;-80
2021/04/17 03:44:12;;;;;;;1.08;1.00;;;4.50;99.90;;;;;;4694480;30;20425;-80
2021/04/17 03:46:38;;;;;;;1.20;1.10;;;4.50;99.90;;;;;;4697775;30;20426;-80
2021/04/17 03:49:04;;;;;;;1.33;1.00;;;4.50;99.90;;;;;;4694034;30;20583;-79
2021/04/17 03:51:30;;;;;;;1.42;1.20;;;4.50;99.90;;;;;;4697161;30;20785;-80
2021/04/17 03:53:55;;;;;;;1.20;0.83;;;4.40;99.90;;;;;;4697752;30;20431;-80
2021/04/17 03:56:21;;;;;;;1.23;1.13;;;4.40;99.90;;;;;;4696143;30;20432;-80
2021/04/17 03:58:47;;;;;;;1.92;1.00;;;4.50;99.90;;;;;;4696686;30;20495;-80
2021/04/17 04:01:13;;;;;;;0.90;0.90;;;4.40;99.90;;;;;;4681260;30;20450;-80
2021/04/17 04:03:39;;;;;;;1.00;1.00;;;4.50;99.90;;;;;;4694409;30;20407;-81
2021/04/17 04:06:04;;;;;;;1.20;1.10;;;4.50;99.90;;;;;;4688438;30;20428;-80
2021/04/17 04:08:30;;;;;;;1.23;1.10;;;4.50;99.90;;;;;;4700683;30;20433;-80
2021/04/17 04:10:56;;;;;;;0.93;0.93;;;4.50;99.90;;;;;;4701533;30;20418;-81
2021/04/17 04:13:22;;;;;;;1.30;1.20;;;4.50;99.90;;;;;;4700369;30;20461;-81
2021/04/17 04:15:48;;;;;;;1.30;1.20;;;4.50;99.90;;;;;;4712225;30;20518;-80
2021/04/17 04:18:13;;;;;;;1.05;1.00;;;4.50;99.90;;;;;;4700793;30;20418;-80
2021/04/17 04:20:39;;;;;;;0.80;0.80;;;4.70;99.90;;;;;;4698235;30;20440;-80
2021/04/17 04:23:05;;;;;;;1.20;1.10;;;4.60;99.90;;;;;;4691367;30;20420;-81
2021/04/17 04:25:30;;;;;;;1.92;1.20;;;4.60;99.90;;;;;;4700920;30;21105;-80
2021/04/17 04:27:56;;;;;;;0.97;0.97;;;4.70;99.90;;;;;;4711162;30;20409;-80
2021/04/17 04:30:22;;;;;;;1.47;1.37;;;4.50;99.90;;;;;;4680091;30;20492;-80
2021/04/17 04:32:48;;;;;;;1.33;1.02;;;4.40;99.90;;;;;;4700259;30;20450;-80
2021/04/17 04:35:14;;;;;;;1.35;1.20;;;4.40;99.90;;;;;;4707776;30;20795;-80
2021/04/17 04:37:40;;;;;;;1.00;1.00;;;4.50;99.90;;;;;;4675973;30;20444;-80
2021/04/17 04:40:06;;;;;;;0.93;0.93;;;4.50;99.90;;;;;;4712393;30;20431;-80
2021/04/17 04:42:32;;;;;;;1.45;1.10;;;4.50;99.90;;;;;;4713560;30;20465;-80
2021/04/17 04:44:59;;;;;;;1.25;1.05;;;4.50;99.90;;;;;;4714702;30;20576;-80
2021/04/17 04:47:25;;;;;;;1.30;1.20;;;4.50;99.90;;;;;;4698464;30;20429;-80
2021/04/17 04:49:51;;;;;;;1.10;1.00;;;4.40;99.90;;;;;;4720534;30;20424;-79
2021/04/17 04:52:16;;;;;;;1.10;1.00;;;4.40;99.90;;;;;;4713830;30;20959;-77
2021/04/17 04:54:42;;;;;;;1.00;1.00;;;4.40;99.90;;;;;;4711710;30;20468;-78
2021/04/17 04:57:08;;;;;;;1.30;1.20;;;4.40;99.90;;;;;;4689031;30;20442;-78
2021/04/17 04:59:33;;;;;;;3.50;1.20;;;4.50;99.90;;;;;;4693487;30;20446;-78
2021/04/17 05:02:01;;;;;;;1.02;0.90;;;4.50;99.90;;;;;;4702181;30;20440;-79
2021/04/17 05:04:27;;;;;;;0.90;0.90;;;4.40;99.90;;;;;;4691770;30;20453;-79
2021/04/17 05:06:52;;;;;;;1.40;1.20;;;4.40;99.90;;;;;;4713406;30;20421;-79
2021/04/17 05:09:18;;;;;;;0.93;0.93;;;4.50;99.90;;;;;;4699435;30;20835;-81
2021/04/17 05:11:44;;;;;;;1.40;1.30;;;4.50;99.90;;;;;;4698421;30;20426;-80
2021/04/17 05:14:10;;;;;;;1.73;1.23;;;4.60;99.90;;;;;;4700204;30;20921;-81
2021/04/17 05:16:35;;;;;;;1.45;1.35;;;4.60;99.90;;;;;;4711484;30;20415;-80
2021/04/17 05:19:01;;;;;;;2.20;1.33;;;4.60;99.90;;;;;;4728248;30;20466;-80
2021/04/17 05:21:28;;;;;;;1.53;1.20;;;4.60;99.90;;;;;;4681919;30;20460;-80
2021/04/17 05:23:54;;;;;;;1.20;1.10;;;4.60;99.90;;;;;;4712907;30;20430;-79
2021/04/17 05:26:19;;;;;;;1.23;1.10;;;4.60;99.90;;;;;;4698953;30;20426;-78
2021/04/17 05:28:45;;;;;;;1.23;1.13;;;4.70;99.90;;;;;;4695754;30;20459;-78
2021/04/17 05:31:11;;;;;;;1.15;1.15;;;4.90;99.90;;;;;;4691067;30;20926;-78
2021/04/17 05:33:37;;;;;;;1.20;1.10;;;4.80;99.90;;;;;;4690940;30;20458;-77
2021/04/17 05:36:03;;;;;;;1.00;1.00;;;4.80;99.90;;;;;;4702262;30;20434;-77
2021/04/17 05:38:29;;;;;;;1.65;1.08;;;4.90;99.90;;;;;;4698834;30;20496;-77
2021/04/17 05:40:54;;;;;;;0.97;0.93;;;5.00;99.90;;;;;;4685188;30;20442;-77
2021/04/17 05:43:20;;;;;;;1.13;1.10;;;5.10;99.90;;;;;;4715365;30;20509;-78
2021/04/17 05:45:46;;;;;;;1.20;1.17;;;5.20;99.90;;;;;;4698824;30;20492;-78
2021/04/17 05:48:12;;;;;;;1.30;1.20;;;5.30;99.90;;;;;;4713606;30;20422;-80
2021/04/17 05:50:39;;;;;;;1.77;1.58;;;5.30;99.90;;;;;;4715765;30;21342;-80
2021/04/17 05:53:04;;;;;;;1.20;1.10;;;5.40;99.90;;;;;;4683616;30;20943;-80
2021/04/17 05:55:30;;;;;;;0.90;0.90;;;5.40;99.90;;;;;;4699180;30;20462;-80
2021/04/17 05:57:56;;;;;;;1.00;1.00;;;5.50;99.90;;;;;;4698030;30;20439;-80
2021/04/17 06:00:22;;;;;;;1.08;1.08;;;5.50;99.90;;;;;;4683696;30;20438;-80
2021/04/17 06:02:50;;;;;;;1.20;1.15;;;5.50;99.90;;;;;;4727681;30;20438;-80
2021/04/17 06:05:16;;;;;;;1.80;1.00;;;5.50;99.90;;;;;;4704941;30;20519;-80
2021/04/17 06:07:42;;;;;;;3.50;1.23;;;5.50;99.90;;;;;;4692693;30;20513;-79
2021/04/17 06:10:08;;;;;;;1.13;1.10;;;5.60;99.90;;;;;;4684491;30;20412;-80
2021/04/17 06:12:34;;;;;;;1.23;1.13;;;5.50;99.90;;;;;;4687064;30;20434;-80
2021/04/17 06:15:00;;;;;;;1.17;1.02;;;5.50;99.90;;;;;;4697022;30;20515;-80
2021/04/17 06:17:25;;;;;;;1.13;1.02;;;5.60;99.90;;;;;;4703067;30;20418;-81
2021/04/17 06:19:51;;;;;;;1.03;1.03;;;5.60;99.90;;;;;;4690070;30;20426;-81
2021/04/17 06:22:17;;;;;;;1.40;1.10;;;5.80;99.90;;;;;;4701251;30;20916;-80
2021/04/17 06:24:42;;;;;;;1.30;1.20;;;5.80;99.90;;;;;;4684725;30;20623;-81
2021/04/17 06:27:08;;;;;;;1.67;1.50;;;5.80;99.90;;;;;;4688902;30;21259;-80
2021/04/17 06:29:34;;;;;;;1.30;1.20;;;5.80;99.90;;;;;;4698247;30;20502;-78
2021/04/17 06:31:59;;;;;;;14.97;13.33;;;5.80;99.90;;;;;;4689210;30;20480;-80
2021/04/17 06:34:25;;;;;;;1.67;1.57;;;5.90;99.90;;;;;;4712030;30;20537;-80
2021/04/17 06:36:51;;;;;;;1.45;1.35;;;5.90;99.90;;;;;;4702273;30;20430;-79
2021/04/17 06:39:17;;;;;;;1.40;1.20;;;5.90;99.90;;;;;;4696700;30;20430;-81
2021/04/17 06:41:43;;;;;;;1.50;1.40;;;5.90;99.90;;;;;;4685637;30;20445;-81
2021/04/17 06:44:09;;;;;;;1.30;1.20;;;6.00;99.90;;;;;;4712846;30;20442;-81
2021/04/17 06:46:35;;;;;;;1.80;1.27;;;6.10;99.90;;;;;;4703781;30;20433;-81
2021/04/17 06:49:01;;;;;;;2.10;1.65;;;6.20;99.90;;;;;;4698355;30;20472;-81
2021/04/17 06:51:27;;;;;;;1.35;1.25;;;6.30;99.90;;;;;;4698244;30;20503;-81
2021/04/17 06:53:53;;;;;;;1.70;1.60;;;6.30;99.90;;;;;;4710828;30;20850;-80
2021/04/17 06:56:19;;;;;;;2.65;1.85;;;6.30;99.90;;;;;;4714599;30;20984;-79
2021/04/17 06:58:44;;;;;;;1.63;1.53;;;6.30;99.90;;;;;;4697604;30;20433;-79
2021/04/17 07:01:10;;;;;;;3.07;1.60;;;6.40;99.90;;;;;;4681776;30;20458;-79
2021/04/17 07:03:36;;;;;;;2.50;1.58;;;6.30;99.90;;;;;;4716675;30;20434;-79
2021/04/17 07:06:02;;;;;;;2.20;1.40;;;6.50;99.90;;;;;;4683949;30;20428;-79
2021/04/17 07:08:27;;;;;;;1.50;1.40;;;6.30;99.90;;;;;;4698304;30;20944;-79
2021/04/17 07:10:53;;;;;;;1.60;1.50;;;6.40;99.90;;;;;;4704021;30;20940;-79
2021/04/17 07:13:19;;;;;;;2.00;1.52;;;6.50;99.90;;;;;;4696833;30;20445;-76
2021/04/17 07:15:45;;;;;;;1.53;1.43;;;6.30;99.90;;;;;;4718122;30;20812;-79
2021/04/17 07:18:27;;;;;;;1.58;1.48;;;6.40;99.90;;;;;;4683601;30;20443;-79
2021/04/17 07:20:53;;;;;;;1.57;1.37;;;6.50;99.90;;;;;;4696270;30;20487;-80
2021/04/17 07:23:31;;;;;;;1.40;1.20;;;6.60;99.90;;;;;;4688056;30;20839;-79
2021/04/17 07:26:15;;;;;;;1.50;1.40;;;6.70;99.90;;;;;;4723323;30;20953;-78
2021/04/17 07:28:54;;;;;;;1.70;1.60;;;6.70;99.90;;;;;;4711188;30;20459;-77
2021/04/17 07:31:20;;;;;;;1.90;1.58;;;6.60;99.90;;;;;;4708528;30;20462;-77
2021/04/17 07:33:46;;;;;;;1.77;1.67;;;6.60;99.90;;;;;;4716058;30;20930;-77
2021/04/17 07:36:11;;;;;;;1.80;1.40;;;6.70;99.90;;;;;;4721444;30;20433;-81
2021/04/17 07:38:38;;;;;;;1.85;1.50;;;6.80;99.90;;;;;;4703801;30;20422;-78
2021/04/17 07:41:10;;;;;;;2.22;1.98;;;7.00;99.90;;;;;;4679506;30;20480;-79
2021/04/17 07:43:52;;;;;;;1.80;1.70;;;7.10;99.90;;;;;;4712189;30;20499;-78
2021/04/17 07:46:31;;;;;;;1.60;1.50;;;7.20;99.90;;;;;;4700393;30;20418;-79
2021/04/17 07:49:14;;;;;;;1.87;1.73;;;7.30;99.90;;;;;;4701319;30;20421;-79
2021/04/17 07:51:58;;;;;;;2.88;2.40;;;7.40;99.90;;;;;;4684007;30;20929;-78
2021/04/17 07:54:24;;;;;;;2.50;2.30;;;7.50;99.90;;;;;;4707151;30;20472;-76
2021/04/17 07:56:52;;;;;;;2.63;1.88;;;7.40;99.90;;;;;;4703508;30;20453;-76
2021/04/17 07:59:22;;;;;;;2.17;1.90;;;7.50;99.90;;;;;;4667286;30;20427;-77
2021/04/17 08:01:49;;;;;;;1.80;1.70;;;7.50;99.90;;;;;;4698443;30;20499;-77
2021/04/17 08:04:17;;;;;;;2.80;2.15;;;7.50;99.90;;;;;;4691896;30;20432;-78
2021/04/17 08:06:43;;;;;;;2.45;2.15;;;7.60;99.90;;;;;;4694507;30;21177;-77
2021/04/17 08:09:09;;;;;;;2.05;1.70;;;7.60;99.90;;;;;;4713034;30;20538;-76
2021/04/17 08:11:34;;;;;;;2.27;2.07;;;7.70;99.90;;;;;;4716903;30;20916;-76
2021/04/17 08:14:00;;;;;;;2.30;2.10;;;7.90;99.90;;;;;;4677908;30;20438;-78
2021/04/17 08:16:26;;;;;;;2.83;2.38;;;8.00;99.90;;;;;;4706109;30;20418;-77
2021/04/17 08:18:52;;;;;;;3.00;2.43;;;8.00;99.90;;;;;;4713209;30;20443;-78
2021/04/17 08:21:19;;;;;;;3.15;2.60;;;8.00;99.90;;;;;;4715017;30;20422;-77
2021/04/17 08:23:47;;;;;;;2.40;2.20;;;7.80;99.90;;;;;;4713665;30;20438;-79
2021/04/17 08:26:12;;;;;;;2.90;2.30;;;7.90;99.90;;;;;;4708609;30;20434;-79
2021/04/17 08:29:04;;;;;;;2.97;2.70;;;8.00;99.90;;;;;;4716078;30;20422;-76
2021/04/17 08:31:31;;;;;;;3.80;3.00;;;8.10;99.90;;;;;;4684392;30;20503;-80
2021/04/17 08:34:11;;;;;;;7.35;3.47;;;8.10;99.90;;;;;;4705604;30;20466;-81
2021/04/17 08:36:51;;;;;;;3.33;3.00;;;8.40;99.90;;;;;;4686541;30;20461;-81
2021/04/17 08:39:40;;;;;;;5.20;3.72;;;8.30;99.90;;;;;;4687831;30;20431;-78
2021/04/17 08:42:10;;;;;;;3.35;3.05;;;7.80;99.90;;;;;;4694183;30;20439;-78
2021/04/17 08:44:40;;;;;;;4.00;3.40;;;7.80;99.90;;;;;;4694846;30;20439;-81
2021/04/17 08:47:09;;;;;;;2.83;2.63;;;7.80;99.90;;;;;;4699640;30;20436;-81
2021/04/17 08:49:40;;;;;;;3.25;2.95;;;8.10;99.90;;;;;;4695621;30;20457;-81
2021/04/17 08:52:09;;;;;;;3.40;2.93;;;8.20;99.90;;;;;;4687653;30;20449;-81
2021/04/17 08:54:35;;;;;;;3.80;3.08;;;8.30;99.90;;;;;;4714693;30;20431;-81
2021/04/17 08:57:14;;;;;;;3.75;3.25;;;8.50;99.90;;;;;;4709538;30;20551;-80
2021/04/17 08:59:40;;;;;;;4.28;3.67;;;8.60;99.90;;;;;;4699370;30;20525;-80
2021/04/17 09:02:09;;;;;;;8.23;3.80;;;8.30;99.90;;;;;;4698652;30;20550;-81
2021/04/17 09:04:38;;;;;;;4.43;3.15;;;8.00;99.90;;;;;;4731365;30;20427;-80
2021/04/17 09:07:15;;;;;;;5.55;3.08;;;8.30;99.90;;;;;;4681087;30;20510;-78
2021/04/17 09:09:41;;;;;;;4.30;3.10;;;8.20;99.90;;;;;;4677469;30;20431;-78
2021/04/17 09:12:10;;;;;;;3.47;3.03;;;8.20;99.90;;;;;;4690156;30;20435;-79
2021/04/17 09:14:36;;;;;;;3.67;3.38;;;8.00;99.90;;;;;;4707908;30;20426;-79
2021/04/17 09:17:09;;;;;;;3.22;2.95;;;8.00;99.90;;;;;;4711358;30;20435;-78
2021/04/17 09:19:41;;;;;;;3.38;3.08;;;8.00;99.90;;;;;;4694955;30;20794;-78
2021/04/17 09:22:27;;;;;;;3.20;2.90;;;8.10;99.90;;;;;;4698827;30;20801;-81
2021/04/17 09:24:54;;;;;;;3.28;2.80;;;8.30;99.90;;;;;;4729268;30;20422;-81
2021/04/17 09:27:29;;;;;;;3.10;2.80;;;8.60;99.90;;;;;;4697386;30;20430;-81
2021/04/17 09:30:03;;;;;;;3.55;3.05;;;8.60;99.90;;;;;;4683888;30;20432;-82
2021/04/17 09:32:39;;;;;;;4.03;2.63;;;8.50;99.90;;;;;;4704166;30;20422;-79
2021/04/17 09:35:20;;;;;;;2.80;2.60;;;8.80;99.90;;;;;;4699152;30;20413;-79
2021/04/17 09:37:47;;;;;;;3.20;2.90;;;9.20;99.90;;;;;;4730246;30;20916;-79
2021/04/17 09:40:13;;;;;;;3.45;3.10;;;9.50;99.90;;;;;;4684677;30;20427;-79
2021/04/17 09:42:40;;;;;;;3.65;2.83;;;9.30;99.90;;;;;;4699547;30;20438;-77
2021/04/17 09:45:07;;;;;;;2.90;2.60;;;9.40;99.90;;;;;;4700387;30;20529;-78
2021/04/17 09:47:33;;;;;;;4.77;3.07;;;9.40;99.90;;;;;;4713203;30;20426;-78
2021/04/17 09:49:59;;;;;;;4.82;2.88;;;9.30;99.90;;;;;;4696630;30;20508;-79
2021/04/17 09:52:25;;;;;;;3.08;2.78;;;9.50;99.90;;;;;;4693405;30;20513;-81
2021/04/17 09:55:01;;;;;;;3.50;3.20;;;9.50;99.90;;;;;;4711353;30;20440;-81
2021/04/17 09:57:28;;;;;;;3.28;2.95;;;9.70;99.90;;;;;;4706644;30;20430;-82
2021/04/17 09:59:58;;;;;;;3.27;2.57;;;10.10;99.90;;;;;;4716590;30;20414;-81
2021/04/17 10:02:24;;;;;;;8.73;3.38;;;10.60;99.90;;;;;;4697165;30;20438;-81
2021/04/17 10:04:57;;;;;;;4.40;2.97;;;11.00;99.90;;;;;;4695849;30;20412;-81
2021/04/17 10:07:23;;;;;;;4.72;3.10;;;11.00;99.90;;;;;;4682273;30;20475;-82
2021/04/17 10:10:02;;;;;;;3.97;3.28;;;10.70;99.90;;;;;;4682972;30;20431;-79
2021/04/17 10:12:28;;;;;;;4.30;3.10;;;10.60;99.90;;;;;;4701005;30;21822;-78
2021/04/17 10:15:14;;;;;;;4.90;2.75;;;10.70;99.90;;;;;;4691294;30;20491;-78
2021/04/17 10:17:40;;;;;;;3.85;3.05;;;11.00;99.90;;;;;;4695214;30;20416;-81
2021/04/17 10:20:06;;;;;;;3.20;2.90;;;10.90;99.90;;;;;;4682227;30;20963;-81
2021/04/17 10:22:32;;;;;;;3.65;3.35;;;10.90;99.90;;;;;;4713785;30;20430;-82
2021/04/17 10:24:58;;;;;;;3.22;2.80;;;11.20;99.90;;;;;;4737893;30;20437;-81
2021/04/17 10:27:24;;;;;;;3.70;2.87;;;11.40;99.90;;;;;;4722375;30;20556;-80
2021/04/17 10:29:52;;;;;;;3.78;3.10;;;11.60;99.90;;;;;;4697542;30;20446;-80
2021/04/17 10:32:19;;;;;;;3.00;2.70;;;12.10;99.90;;;;;;4693290;30;20422;-81
2021/04/17 10:34:49;;;;;;;2.70;2.50;;;12.10;99.90;;;;;;4704822;30;20422;-81
2021/04/17 10:37:21;;;;;;;6.57;3.65;;;11.90;99.90;;;;;;4687489;30;20422;-82
2021/04/17 10:40:07;;;;;;;2.88;2.67;;;11.60;99.90;;;;;;4720416;24;20513;-87
2021/04/17 10:45:12;;;;;;;2.97;2.77;;;11.50;99.90;;;;;;4699719;30;20460;-81
2021/04/17 10:47:38;;;;;;;3.10;2.80;;;11.70;99.90;;;;;;4665339;30;20445;-80
2021/04/17 10:50:23;;;;;;;3.20;2.83;;;12.10;99.90;;;;;;4675833;30;20477;-81
2021/04/17 10:52:57;;;;;;;3.08;2.78;;;12.40;99.90;;;;;;4693344;30;20758;-80
2021/04/17 10:55:49;;;;;;;3.00;2.80;;;12.70;99.90;;;;;;4678796;30;20485;-81
2021/04/17 10:58:25;;;;;;;4.20;3.08;;;13.40;99.90;;;;;;4672916;30;20533;-79
2021/04/17 11:01:02;;;;;;;3.10;2.70;;;13.90;99.90;;;;;;4696978;30;20507;-80
2021/04/17 11:03:32;;;;;;;3.22;2.70;;;13.80;99.90;;;;;;4667901;30;20427;-80
2021/04/17 11:05:58;;;;;;;2.75;2.55;;;13.30;99.90;;;;;;4682166;30;20424;-81
2021/04/17 11:08:27;;;;;;;2.80;2.60;;;13.20;99.90;;;;;;4684147;30;20424;-82
2021/04/17 11:10:53;;;;;;;2.70;2.50;;;13.60;99.90;;;;;;4684839;30;20453;-82
2021/04/17 11:13:35;;;;;;;3.42;2.72;;;13.60;99.90;;;;;;4670183;30;20460;-81
2021/04/17 11:16:02;;;;;;;5.18;2.95;;;13.00;99.90;;;;;;4679192;30;20446;-82
2021/04/17 11:18:38;;;;;;;3.78;2.65;;;13.10;99.90;;;;;;4684310;30;20410;-82
2021/04/17 11:21:04;;;;;;;2.90;2.70;;;13.30;99.90;;;;;;4677182;30;20451;-81
2021/04/17 11:23:56;;;;;;;3.58;3.28;;;13.30;99.90;;;;;;4684811;30;20426;-81
2021/04/17 11:26:29;;;;;;;3.17;2.88;;;13.20;99.90;;;;;;4681930;30;21025;-81
2021/04/17 11:29:02;;;;;;;3.20;2.90;;;13.10;99.90;;;;;;4686650;30;20501;-80
2021/04/17 11:31:30;;;;;;;3.30;3.00;;;13.40;99.90;;;;;;4692834;30;20831;-82
2021/04/17 11:33:58;;;;;;;3.70;3.10;;;13.20;99.90;;;;;;4685277;30;20530;-82
2021/04/17 11:36:24;;;;;;;3.80;3.35;;;13.10;99.90;;;;;;4695611;30;20564;-82
2021/04/17 11:38:53;;;;;;;2.80;2.40;;;12.80;99.90;;;;;;4669224;30;20424;-80
2021/04/17 11:41:21;;;;;;;3.20;2.90;;;12.80;99.90;;;;;;4680960;30;20431;-81
2021/04/17 11:43:47;;;;;;;3.30;3.00;;;12.80;99.90;;;;;;4674385;30;20459;-81
2021/04/17 11:46:13;;;;;;;3.13;2.67;;;12.90;99.90;;;;;;4667593;30;20532;-81
2021/04/17 11:48:40;;;;;;;2.70;2.40;;;12.90;99.90;;;;;;4689313;30;20459;-81
2021/04/17 11:51:07;;;;;;;3.80;2.63;;;12.80;99.90;;;;;;4691526;30;20427;-81
2021/04/17 11:53:32;;;;;;;2.90;2.47;;;12.90;99.90;;;;;;4682023;30;20884;-80
2021/04/17 11:55:58;;;;;;;2.65;2.45;;;12.90;99.90;;;;;;4697904;30;20433;-81
2021/04/17 11:58:24;;;;;;;3.27;2.63;;;13.00;99.90;;;;;;4674805;30;20802;-80
2021/04/17 12:00:50;;;;;;;3.10;2.40;;;13.20;99.90;;;;;;4683106;30;20936;-81
2021/04/17 12:03:21;;;;;;;3.55;2.35;;;13.20;99.90;;;;;;4684583;30;20428;-81
2021/04/17 12:05:54;;;;;;;2.97;2.63;;;13.10;99.90;;;;;;4684097;30;20441;-80
2021/04/17 12:08:20;;;;;;;2.60;2.40;;;12.90;99.90;;;;;;4693886;30;20431;-80
2021/04/17 12:10:46;;;;;;;3.10;2.70;;;12.50;99.90;;;;;;4682367;30;20459;-80
2021/04/17 12:13:12;;;;;;;4.70;2.70;;;12.20;99.90;;;;;;4684612;30;21200;-80
2021/04/17 12:15:38;;;;;;;3.80;2.83;;;12.30;99.90;;;;;;4678375;30;20506;-82
2021/04/17 12:18:04;;;;;;;2.65;2.45;;;12.20;99.90;;;;;;4679965;30;20485;-81
2021/04/17 12:20:30;;;;;;;4.07;2.93;;;12.40;99.90;;;;;;4688720;30;20426;-82
2021/04/17 12:22:56;;;;;;;3.10;2.67;;;12.60;99.90;;;;;;4683758;30;21047;-81
2021/04/17 12:25:22;;;;;;;3.22;2.92;;;12.80;99.90;;;;;;4672239;30;20427;-80
2021/04/17 12:27:48;;;;;;;2.90;2.70;;;12.60;99.90;;;;;;4676333;30;20442;-80
2021/04/17 12:30:14;;;;;;;3.13;2.83;;;12.50;99.90;;;;;;4675654;30;20427;-81
2021/04/17 12:32:40;;;;;;;3.38;3.08;;;12.60;99.90;;;;;;4678100;30;20670;-79
2021/04/17 12:35:06;;;;;;;4.38;2.80;;;12.60;99.90;;;;;;4682829;30;21020;-80
2021/04/17 12:37:33;;;;;;;3.38;2.70;;;12.60;99.90;;;;;;4680087;30;20433;-80
2021/04/17 12:40:03;;;;;;;3.45;3.15;;;12.40;99.90;;;;;;4689703;30;20460;-80
2021/04/17 12:42:28;;;;;;;3.35;3.05;;;12.40;99.90;;;;;;4681148;30;20511;-80
2021/04/17 12:44:54;;;;;;;4.68;3.28;;;12.10;99.90;;;;;;4669257;30;20460;-79
2021/04/17 12:47:20;;;;;;;3.10;2.80;;;12.00;99.90;;;;;;4674315;30;20503;-80
2021/04/17 12:49:45;;;;;;;3.50;2.90;;;12.00;99.90;;;;;;4665549;30;20528;-80
2021/04/17 12:52:11;;;;;;;3.50;3.20;;;12.10;99.90;;;;;;4690736;30;20795;-79
2021/04/17 12:54:37;;;;;;;4.10;3.70;;;12.10;99.90;;;;;;4676648;30;20494;-80
2021/04/17 12:57:03;;;;;;;4.20;3.80;;;11.70;99.90;;;;;;4680783;30;20451;-81
2021/04/17 12:59:28;;;;;;;4.75;4.18;;;11.50;99.90;;;;;;4679400;30;20437;-80
2021/04/17 13:01:54;;;;;;;5.75;4.40;;;11.30;99.90;;;;;;4688499;30;20452;-80